Circle City, Arizona
Current Conditions -  °F | °C
As of 8:58 AM on Tuesday 21 Oct 2014 (Local Time) from KLUF Reporting Station
Clear Clear  
Wind Chill: 74°   Ceiling: Unl
Heat Index: 74°   Visibility: 10mi
Dew Point: 52°   Wind: 0mph
Humidity: 45%   Direction: NA
Pressure: 29.91"   Gusts: NA
Location:  33.8631°N, 112.556°W
Report Text: KLUF 211558Z AUTO 00000KT 10SM CLR 24/11 A2991 RMK AO2 SLP119 T02360109 $
Loading
Personal Weather Stations






























Interactive Weather Map
Tropical Storm Tracking
New forecast layout! Learn more

10-Day Weather Forecast

Advertisements
Track Severe Weather on mobile